sensor_id;sensor_type;location;lat;lon;timestamp;temperature;humidity
48988;DHT22;34799;51.440;-2.534;2023-05-15T00:00:01;14.00;99.90
48988;DHT22;34799;51.440;-2.534;2023-05-15T00:02:38;14.00;99.90
48988;DHT22;34799;51.440;-2.534;2023-05-15T00:05:08;14.10;99.90
48988;DHT22;34799;51.440;-2.534;2023-05-15T00:07:37;14.10;99.90
48988;DHT22;34799;51.440;-2.534;2023-05-15T00:10:06;14.10;99.90
48988;DHT22;34799;51.440;-2.534;2023-05-15T00:12:33;13.90;99.90
48988;DHT22;34799;51.440;-2.534;2023-05-15T00:15:03;13.70;99.90
48988;DHT22;34799;51.440;-2.534;2023-05-15T00:17:30;13.60;99.90
48988;DHT22;34799;51.440;-2.534;2023-05-15T00:19:57;13.40;99.90
48988;DHT22;34799;51.440;-2.534;2023-05-15T00:22:25;13.20;99.90
48988;DHT22;34799;51.440;-2.534;2023-05-15T00:24:52;13.00;99.90
48988;DHT22;34799;51.440;-2.534;2023-05-15T00:27:19;13.00;99.90
48988;DHT22;34799;51.440;-2.534;2023-05-15T00:29:46;12.70;99.90
48988;DHT22;34799;51.440;-2.534;2023-05-15T00:32:13;12.80;99.90
48988;DHT22;34799;51.440;-2.534;2023-05-15T00:34:42;12.80;99.90
48988;DHT22;34799;51.440;-2.534;2023-05-15T00:37:09;12.80;99.90
48988;DHT22;34799;51.440;-2.534;2023-05-15T00:39:37;12.80;99.90
48988;DHT22;34799;51.440;-2.534;2023-05-15T00:42:05;12.80;99.90
48988;DHT22;34799;51.440;-2.534;2023-05-15T00:44:34;12.70;99.90
48988;DHT22;34799;51.440;-2.534;2023-05-15T00:47:04;12.60;99.90
48988;DHT22;34799;51.440;-2.534;2023-05-15T00:49:33;12.60;99.90
48988;DHT22;34799;51.440;-2.534;2023-05-15T00:52:01;12.70;99.90
48988;DHT22;34799;51.440;-2.534;2023-05-15T00:54:31;12.60;99.90
48988;DHT22;34799;51.440;-2.534;2023-05-15T00:56:58;12.60;99.90
48988;DHT22;34799;51.440;-2.534;2023-05-15T00:59:30;12.50;99.90
48988;DHT22;34799;51.440;-2.534;2023-05-15T01:01:59;12.50;99.90
48988;DHT22;34799;51.440;-2.534;2023-05-15T01:04:26;12.50;99.90
48988;DHT22;34799;51.440;-2.534;2023-05-15T01:06:54;12.70;99.90
48988;DHT22;34799;51.440;-2.534;2023-05-15T01:09:23;12.40;99.90
48988;DHT22;34799;51.440;-2.534;2023-05-15T01:11:53;12.60;99.90
48988;DHT22;34799;51.440;-2.534;2023-05-15T01:14:22;12.30;99.90
48988;DHT22;34799;51.440;-2.534;2023-05-15T01:16:49;12.30;99.90
48988;DHT22;34799;51.440;-2.534;2023-05-15T01:19:17;12.30;99.90
48988;DHT22;34799;51.440;-2.534;2023-05-15T01:30:21;12.30;99.90
48988;DHT22;34799;51.440;-2.534;2023-05-15T01:33:24;12.30;99.90
48988;DHT22;34799;51.440;-2.534;2023-05-15T01:38:51;12.30;99.90
48988;DHT22;34799;51.440;-2.534;2023-05-15T01:44:21;12.30;99.90
48988;DHT22;34799;51.440;-2.534;2023-05-15T01:46:55;12.20;99.90
48988;DHT22;34799;51.440;-2.534;2023-05-15T01:49:26;12.20;99.90
48988;DHT22;34799;51.440;-2.534;2023-05-15T01:52:07;12.10;99.90
48988;DHT22;34799;51.440;-2.534;2023-05-15T01:54:36;12.00;99.90
48988;DHT22;34799;51.440;-2.534;2023-05-15T01:57:06;11.80;99.90
48988;DHT22;34799;51.440;-2.534;2023-05-15T01:59:37;12.00;99.90
48988;DHT22;34799;51.440;-2.534;2023-05-15T02:02:06;11.90;99.90
48988;DHT22;34799;51.440;-2.534;2023-05-15T02:04:36;11.90;99.90
48988;DHT22;34799;51.440;-2.534;2023-05-15T02:07:05;11.90;99.90
48988;DHT22;34799;51.440;-2.534;2023-05-15T02:09:34;11.90;99.90
48988;DHT22;34799;51.440;-2.534;2023-05-15T02:12:02;11.90;99.90
48988;DHT22;34799;51.440;-2.534;2023-05-15T02:14:31;12.00;99.90
48988;DHT22;34799;51.440;-2.534;2023-05-15T02:16:59;12.50;99.90
48988;DHT22;34799;51.440;-2.534;2023-05-15T02:19:26;12.10;99.90
48988;DHT22;34799;51.440;-2.534;2023-05-15T02:21:53;12.20;99.90
48988;DHT22;34799;51.440;-2.534;2023-05-15T02:24:20;12.20;99.90
48988;DHT22;34799;51.440;-2.534;2023-05-15T02:29:47;12.20;99.90
48988;DHT22;34799;51.440;-2.534;2023-05-15T02:32:49;12.10;99.90
48988;DHT22;34799;51.440;-2.534;2023-05-15T02:35:44;12.00;99.90
48988;DHT22;34799;51.440;-2.534;2023-05-15T02:38:22;11.90;99.90
48988;DHT22;34799;51.440;-2.534;2023-05-15T02:40:56;11.80;99.90
48988;DHT22;34799;51.440;-2.534;2023-05-15T02:43:24;11.80;99.90
48988;DHT22;34799;51.440;-2.534;2023-05-15T02:45:52;11.70;99.90
48988;DHT22;34799;51.440;-2.534;2023-05-15T02:48:20;11.70;99.90
48988;DHT22;34799;51.440;-2.534;2023-05-15T02:50:51;11.60;99.90
48988;DHT22;34799;51.440;-2.534;2023-05-15T02:53:18;11.40;99.90
48988;DHT22;34799;51.440;-2.534;2023-05-15T02:55:46;11.40;99.90
48988;DHT22;34799;51.440;-2.534;2023-05-15T02:58:13;11.50;99.90
48988;DHT22;34799;51.440;-2.534;2023-05-15T03:00:40;11.50;99.90
48988;DHT22;34799;51.440;-2.534;2023-05-15T03:03:08;12.00;99.90
48988;DHT22;34799;51.440;-2.534;2023-05-15T03:05:36;11.40;99.90
48988;DHT22;34799;51.440;-2.534;2023-05-15T03:08:04;11.40;99.90
48988;DHT22;34799;51.440;-2.534;2023-05-15T03:10:31;11.30;99.90
48988;DHT22;34799;51.440;-2.534;2023-05-15T03:12:58;11.60;99.90
48988;DHT22;34799;51.440;-2.534;2023-05-15T03:15:25;11.20;99.90
48988;DHT22;34799;51.440;-2.534;2023-05-15T03:17:52;11.10;99.90
48988;DHT22;34799;51.440;-2.534;2023-05-15T03:20:19;11.20;99.90
48988;DHT22;34799;51.440;-2.534;2023-05-15T03:22:46;11.30;99.90
48988;DHT22;34799;51.440;-2.534;2023-05-15T03:25:14;11.10;99.90
48988;DHT22;34799;51.440;-2.534;2023-05-15T03:27:43;11.30;99.90
48988;DHT22;34799;51.440;-2.534;2023-05-15T03:30:10;11.10;99.90
48988;DHT22;34799;51.440;-2.534;2023-05-15T03:32:37;11.20;99.90
48988;DHT22;34799;51.440;-2.534;2023-05-15T03:35:05;11.40;99.90
48988;DHT22;34799;51.440;-2.534;2023-05-15T03:37:32;11.20;99.90
48988;DHT22;34799;51.440;-2.534;2023-05-15T03:39:59;11.30;99.90
48988;DHT22;34799;51.440;-2.534;2023-05-15T03:42:26;12.30;99.90
48988;DHT22;34799;51.440;-2.534;2023-05-15T03:44:53;11.20;99.90
48988;DHT22;34799;51.440;-2.534;2023-05-15T03:47:23;11.30;99.90
48988;DHT22;34799;51.440;-2.534;2023-05-15T03:49:51;11.30;99.90
48988;DHT22;34799;51.440;-2.534;2023-05-15T03:52:18;11.40;99.90
48988;DHT22;34799;51.440;-2.534;2023-05-15T03:54:45;11.40;99.90
48988;DHT22;34799;51.440;-2.534;2023-05-15T03:57:12;11.30;99.90
48988;DHT22;34799;51.440;-2.534;2023-05-15T03:59:40;11.30;99.90
48988;DHT22;34799;51.440;-2.534;2023-05-15T04:02:07;11.30;99.90
48988;DHT22;34799;51.440;-2.534;2023-05-15T04:04:36;11.20;99.90
48988;DHT22;34799;51.440;-2.534;2023-05-15T04:07:04;11.20;99.90
48988;DHT22;34799;51.440;-2.534;2023-05-15T04:09:31;11.20;99.90
48988;DHT22;34799;51.440;-2.534;2023-05-15T04:11:58;11.20;99.90
48988;DHT22;34799;51.440;-2.534;2023-05-15T04:14:25;11.10;99.90
48988;DHT22;34799;51.440;-2.534;2023-05-15T04:16:52;11.20;99.90
48988;DHT22;34799;51.440;-2.534;2023-05-15T04:19:19;11.20;99.90
48988;DHT22;34799;51.440;-2.534;2023-05-15T04:21:46;11.20;99.90
48988;DHT22;34799;51.440;-2.534;2023-05-15T04:24:13;11.20;99.90
48988;DHT22;34799;51.440;-2.534;2023-05-15T04:26:42;11.10;99.90
48988;DHT22;34799;51.440;-2.534;2023-05-15T04:29:09;11.10;99.90
48988;DHT22;34799;51.440;-2.534;2023-05-15T04:31:37;11.10;99.90
48988;DHT22;34799;51.440;-2.534;2023-05-15T04:34:04;11.90;99.90
48988;DHT22;34799;51.440;-2.534;2023-05-15T04:36:31;11.10;99.90
48988;DHT22;34799;51.440;-2.534;2023-05-15T04:38:58;10.90;99.90
48988;DHT22;34799;51.440;-2.534;2023-05-15T04:41:25;10.80;99.90
48988;DHT22;34799;51.440;-2.534;2023-05-15T04:43:53;10.70;99.90
48988;DHT22;34799;51.440;-2.534;2023-05-15T04:46:20;10.70;99.90
48988;DHT22;34799;51.440;-2.534;2023-05-15T04:48:50;10.60;99.90
48988;DHT22;34799;51.440;-2.534;2023-05-15T04:51:17;10.70;99.90
48988;DHT22;34799;51.440;-2.534;2023-05-15T04:53:44;10.60;99.90
48988;DHT22;34799;51.440;-2.534;2023-05-15T04:56:11;10.60;99.90
48988;DHT22;34799;51.440;-2.534;2023-05-15T04:58:38;11.20;99.90
48988;DHT22;34799;51.440;-2.534;2023-05-15T05:01:05;10.80;99.90
48988;DHT22;34799;51.440;-2.534;2023-05-15T05:03:32;10.50;99.90
48988;DHT22;34799;51.440;-2.534;2023-05-15T05:05:59;10.40;99.90
48988;DHT22;34799;51.440;-2.534;2023-05-15T05:08:26;10.60;99.90
48988;DHT22;34799;51.440;-2.534;2023-05-15T05:10:58;10.60;99.90
48988;DHT22;34799;51.440;-2.534;2023-05-15T05:13:25;10.50;99.90
48988;DHT22;34799;51.440;-2.534;2023-05-15T05:15:52;10.40;99.90
48988;DHT22;34799;51.440;-2.534;2023-05-15T05:18:19;10.60;99.90
48988;DHT22;34799;51.440;-2.534;2023-05-15T05:20:46;10.40;99.90
48988;DHT22;34799;51.440;-2.534;2023-05-15T05:23:13;10.40;99.90
48988;DHT22;34799;51.440;-2.534;2023-05-15T05:25:44;10.40;99.90
48988;DHT22;34799;51.440;-2.534;2023-05-15T05:28:11;10.30;99.90
48988;DHT22;34799;51.440;-2.534;2023-05-15T05:30:38;10.20;99.90
48988;DHT22;34799;51.440;-2.534;2023-05-15T05:33:05;10.20;99.90
48988;DHT22;34799;51.440;-2.534;2023-05-15T05:35:32;11.20;99.90
48988;DHT22;34799;51.440;-2.534;2023-05-15T05:37:59;10.30;99.90
48988;DHT22;34799;51.440;-2.534;2023-05-15T05:40:26;10.30;99.90
48988;DHT22;34799;51.440;-2.534;2023-05-15T05:43:04;10.30;99.90
48988;DHT22;34799;51.440;-2.534;2023-05-15T05:45:32;10.30;99.90
48988;DHT22;34799;51.440;-2.534;2023-05-15T05:47:59;10.20;99.90
48988;DHT22;34799;51.440;-2.534;2023-05-15T05:50:26;10.30;99.90
48988;DHT22;34799;51.440;-2.534;2023-05-15T05:52:53;10.30;99.90
48988;DHT22;34799;51.440;-2.534;2023-05-15T05:55:20;10.30;99.90
48988;DHT22;34799;51.440;-2.534;2023-05-15T05:57:47;10.30;99.90
48988;DHT22;34799;51.440;-2.534;2023-05-15T06:00:14;10.30;99.90
48988;DHT22;34799;51.440;-2.534;2023-05-15T06:02:41;10.40;99.90
48988;DHT22;34799;51.440;-2.534;2023-05-15T06:05:08;10.50;99.90
48988;DHT22;34799;51.440;-2.534;2023-05-15T06:07:37;11.20;99.90
48988;DHT22;34799;51.440;-2.534;2023-05-15T06:10:04;10.50;99.90
48988;DHT22;34799;51.440;-2.534;2023-05-15T06:12:33;10.50;99.90
48988;DHT22;34799;51.440;-2.534;2023-05-15T06:15:00;10.40;99.90
48988;DHT22;34799;51.440;-2.534;2023-05-15T06:17:27;10.80;99.90
48988;DHT22;34799;51.440;-2.534;2023-05-15T06:19:54;11.50;99.90
48988;DHT22;34799;51.440;-2.534;2023-05-15T06:22:21;10.60;99.90
48988;DHT22;34799;51.440;-2.534;2023-05-15T06:24:48;10.80;99.90
48988;DHT22;34799;51.440;-2.534;2023-05-15T06:27:17;10.70;99.90
48988;DHT22;34799;51.440;-2.534;2023-05-15T06:29:44;10.70;99.90
48988;DHT22;34799;51.440;-2.534;2023-05-15T06:32:11;10.60;99.90
48988;DHT22;34799;51.440;-2.534;2023-05-15T06:34:38;10.60;99.90
48988;DHT22;34799;51.440;-2.534;2023-05-15T06:37:05;10.60;99.90
48988;DHT22;34799;51.440;-2.534;2023-05-15T06:39:33;11.00;99.90
48988;DHT22;34799;51.440;-2.534;2023-05-15T06:42:00;11.50;99.90
48988;DHT22;34799;51.440;-2.534;2023-05-15T06:44:30;10.70;99.90
48988;DHT22;34799;51.440;-2.534;2023-05-15T06:46:58;10.70;99.90
48988;DHT22;34799;51.440;-2.534;2023-05-15T06:49:25;11.10;99.90
48988;DHT22;34799;51.440;-2.534;2023-05-15T06:51:53;10.70;99.90
48988;DHT22;34799;51.440;-2.534;2023-05-15T06:54:20;10.70;99.90
48988;DHT22;34799;51.440;-2.534;2023-05-15T06:56:48;10.70;99.90
48988;DHT22;34799;51.440;-2.534;2023-05-15T06:59:15;10.70;99.90
48988;DHT22;34799;51.440;-2.534;2023-05-15T07:01:41;10.80;99.90
48988;DHT22;34799;51.440;-2.534;2023-05-15T07:04:11;10.60;99.90
48988;DHT22;34799;51.440;-2.534;2023-05-15T07:06:40;10.60;99.90
48988;DHT22;34799;51.440;-2.534;2023-05-15T07:09:08;10.70;99.90
48988;DHT22;34799;51.440;-2.534;2023-05-15T07:11:35;10.70;99.90
48988;DHT22;34799;51.440;-2.534;2023-05-15T07:14:05;11.20;99.90
48988;DHT22;34799;51.440;-2.534;2023-05-15T07:16:32;11.30;99.90
48988;DHT22;34799;51.440;-2.534;2023-05-15T07:18:59;11.10;99.90
48988;DHT22;34799;51.440;-2.534;2023-05-15T07:21:26;10.80;99.90
48988;DHT22;34799;51.440;-2.534;2023-05-15T07:23:54;10.90;99.90
48988;DHT22;34799;51.440;-2.534;2023-05-15T07:26:21;11.00;99.90
48988;DHT22;34799;51.440;-2.534;2023-05-15T07:28:57;11.00;99.90
48988;DHT22;34799;51.440;-2.534;2023-05-15T07:31:24;11.10;99.90
48988;DHT22;34799;51.440;-2.534;2023-05-15T07:33:51;11.20;99.90
48988;DHT22;34799;51.440;-2.534;2023-05-15T07:36:18;11.20;99.90
48988;DHT22;34799;51.440;-2.534;2023-05-15T07:38:47;11.10;99.90
48988;DHT22;34799;51.440;-2.534;2023-05-15T07:41:14;10.90;99.90
48988;DHT22;34799;51.440;-2.534;2023-05-15T07:43:41;11.30;99.90
48988;DHT22;34799;51.440;-2.534;2023-05-15T07:46:08;10.90;99.90
48988;DHT22;34799;51.440;-2.534;2023-05-15T07:48:35;11.60;99.90
48988;DHT22;34799;51.440;-2.534;2023-05-15T07:51:02;11.00;99.90
48988;DHT22;34799;51.440;-2.534;2023-05-15T07:53:29;11.00;99.90
48988;DHT22;34799;51.440;-2.534;2023-05-15T07:55:56;11.10;99.90
48988;DHT22;34799;51.440;-2.534;2023-05-15T07:58:24;11.90;99.90
48988;DHT22;34799;51.440;-2.534;2023-05-15T08:00:53;11.30;99.90
48988;DHT22;34799;51.440;-2.534;2023-05-15T08:03:20;11.30;99.90
48988;DHT22;34799;51.440;-2.534;2023-05-15T08:05:47;11.30;99.90
48988;DHT22;34799;51.440;-2.534;2023-05-15T08:08:14;11.30;99.90
48988;DHT22;34799;51.440;-2.534;2023-05-15T08:10:41;11.30;99.90
48988;DHT22;34799;51.440;-2.534;2023-05-15T08:13:08;11.80;99.90
48988;DHT22;34799;51.440;-2.534;2023-05-15T08:15:35;12.40;99.90
48988;DHT22;34799;51.440;-2.534;2023-05-15T08:18:07;12.30;99.90
48988;DHT22;34799;51.440;-2.534;2023-05-15T08:20:36;11.50;99.90
48988;DHT22;34799;51.440;-2.534;2023-05-15T08:23:03;11.60;99.90
48988;DHT22;34799;51.440;-2.534;2023-05-15T08:25:30;11.60;99.90
48988;DHT22;34799;51.440;-2.534;2023-05-15T08:27:57;11.70;99.90
48988;DHT22;34799;51.440;-2.534;2023-05-15T08:30:24;12.60;99.90
48988;DHT22;34799;51.440;-2.534;2023-05-15T08:32:53;11.70;99.90
48988;DHT22;34799;51.440;-2.534;2023-05-15T08:35:21;11.70;99.90
48988;DHT22;34799;51.440;-2.534;2023-05-15T08:37:48;12.40;99.90
48988;DHT22;34799;51.440;-2.534;2023-05-15T08:40:15;11.80;99.90
48988;DHT22;34799;51.440;-2.534;2023-05-15T08:42:44;11.60;99.90
48988;DHT22;34799;51.440;-2.534;2023-05-15T08:45:12;11.70;99.90
48988;DHT22;34799;51.440;-2.534;2023-05-15T08:47:42;11.90;99.90
48988;DHT22;34799;51.440;-2.534;2023-05-15T08:50:14;11.90;99.90
48988;DHT22;34799;51.440;-2.534;2023-05-15T08:52:45;12.20;99.90
48988;DHT22;34799;51.440;-2.534;2023-05-15T08:55:13;12.30;99.90
48988;DHT22;34799;51.440;-2.534;2023-05-15T08:57:41;12.40;99.90
48988;DHT22;34799;51.440;-2.534;2023-05-15T09:00:09;12.40;99.90
48988;DHT22;34799;51.440;-2.534;2023-05-15T09:02:41;12.60;99.90
48988;DHT22;34799;51.440;-2.534;2023-05-15T09:05:09;12.80;99.90
48988;DHT22;34799;51.440;-2.534;2023-05-15T09:07:38;12.80;99.90
48988;DHT22;34799;51.440;-2.534;2023-05-15T09:10:08;13.00;99.90
48988;DHT22;34799;51.440;-2.534;2023-05-15T09:12:40;13.20;99.90
48988;DHT22;34799;51.440;-2.534;2023-05-15T09:15:10;13.20;99.90
48988;DHT22;34799;51.440;-2.534;2023-05-15T09:17:38;13.20;99.90
48988;DHT22;34799;51.440;-2.534;2023-05-15T09:20:06;13.10;99.90
48988;DHT22;34799;51.440;-2.534;2023-05-15T09:22:35;13.00;99.90
48988;DHT22;34799;51.440;-2.534;2023-05-15T09:25:03;12.80;99.90
48988;DHT22;34799;51.440;-2.534;2023-05-15T09:27:40;12.70;99.90
48988;DHT22;34799;51.440;-2.534;2023-05-15T09:30:08;12.80;99.90
48988;DHT22;34799;51.440;-2.534;2023-05-15T09:32:36;12.60;99.90
48988;DHT22;34799;51.440;-2.534;2023-05-15T09:35:30;12.60;99.90
48988;DHT22;34799;51.440;-2.534;2023-05-15T09:38:00;12.50;99.90
48988;DHT22;34799;51.440;-2.534;2023-05-15T09:40:29;12.70;99.90
48988;DHT22;34799;51.440;-2.534;2023-05-15T09:42:57;12.50;99.90
48988;DHT22;34799;51.440;-2.534;2023-05-15T09:45:25;12.70;99.90
48988;DHT22;34799;51.440;-2.534;2023-05-15T09:47:59;13.00;99.90
48988;DHT22;34799;51.440;-2.534;2023-05-15T09:50:36;12.60;99.90
48988;DHT22;34799;51.440;-2.534;2023-05-15T09:53:05;12.50;99.90
48988;DHT22;34799;51.440;-2.534;2023-05-15T09:55:35;12.60;99.90
48988;DHT22;34799;51.440;-2.534;2023-05-15T09:58:08;12.70;99.90
48988;DHT22;34799;51.440;-2.534;2023-05-15T10:00:36;12.90;99.90
48988;DHT22;34799;51.440;-2.534;2023-05-15T10:03:05;12.80;99.90
48988;DHT22;34799;51.440;-2.534;2023-05-15T10:05:34;12.90;99.90
48988;DHT22;34799;51.440;-2.534;2023-05-15T10:08:09;13.00;99.90
48988;DHT22;34799;51.440;-2.534;2023-05-15T10:10:37;12.90;99.90
48988;DHT22;34799;51.440;-2.534;2023-05-15T10:13:06;13.00;99.90
48988;DHT22;34799;51.440;-2.534;2023-05-15T10:15:33;13.10;99.90
48988;DHT22;34799;51.440;-2.534;2023-05-15T10:18:03;13.20;99.90
48988;DHT22;34799;51.440;-2.534;2023-05-15T10:20:32;13.40;99.90
48988;DHT22;34799;51.440;-2.534;2023-05-15T10:23:03;13.40;99.90
48988;DHT22;34799;51.440;-2.534;2023-05-15T10:25:54;13.30;99.90
48988;DHT22;34799;51.440;-2.534;2023-05-15T10:28:27;13.30;99.90
48988;DHT22;34799;51.440;-2.534;2023-05-15T10:30:57;13.40;99.90
48988;DHT22;34799;51.440;-2.534;2023-05-15T10:33:28;13.40;99.90
48988;DHT22;34799;51.440;-2.534;2023-05-15T10:35:55;13.50;99.90
48988;DHT22;34799;51.440;-2.534;2023-05-15T10:38:24;13.50;99.90
48988;DHT22;34799;51.440;-2.534;2023-05-15T10:40:54;13.50;99.90
48988;DHT22;34799;51.440;-2.534;2023-05-15T10:43:29;13.40;99.90
48988;DHT22;34799;51.440;-2.534;2023-05-15T10:45:58;13.30;99.90
48988;DHT22;34799;51.440;-2.534;2023-05-15T10:48:26;13.30;99.90
48988;DHT22;34799;51.440;-2.534;2023-05-15T10:50:53;13.50;99.90
48988;DHT22;34799;51.440;-2.534;2023-05-15T10:53:20;14.30;99.90
48988;DHT22;34799;51.440;-2.534;2023-05-15T10:55:48;13.80;99.90
48988;DHT22;34799;51.440;-2.534;2023-05-15T10:58:16;13.80;99.90
48988;DHT22;34799;51.440;-2.534;2023-05-15T11:00:45;13.70;99.90
48988;DHT22;34799;51.440;-2.534;2023-05-15T11:03:13;13.60;99.90
48988;DHT22;34799;51.440;-2.534;2023-05-15T11:06:06;13.50;99.90
48988;DHT22;34799;51.440;-2.534;2023-05-15T11:08:36;13.70;99.90
48988;DHT22;34799;51.440;-2.534;2023-05-15T11:11:03;13.90;99.70
48988;DHT22;34799;51.440;-2.534;2023-05-15T11:25:09;14.40;98.40
48988;DHT22;34799;51.440;-2.534;2023-05-15T11:27:40;14.50;98.50
48988;DHT22;34799;51.440;-2.534;2023-05-15T11:30:21;14.60;98.50
48988;DHT22;34799;51.440;-2.534;2023-05-15T11:32:54;14.80;98.40
48988;DHT22;34799;51.440;-2.534;2023-05-15T11:35:34;14.70;99.10
48988;DHT22;34799;51.440;-2.534;2023-05-15T11:38:09;14.80;99.40
48988;DHT22;34799;51.440;-2.534;2023-05-15T11:40:49;14.70;98.80
48988;DHT22;34799;51.440;-2.534;2023-05-15T11:43:27;14.90;98.70
48988;DHT22;34799;51.440;-2.534;2023-05-15T11:46:08;15.00;98.20
48988;DHT22;34799;51.440;-2.534;2023-05-15T11:48:42;15.00;98.10
48988;DHT22;34799;51.440;-2.534;2023-05-15T11:51:19;15.10;97.60
48988;DHT22;34799;51.440;-2.534;2023-05-15T11:53:52;15.00;98.30
48988;DHT22;34799;51.440;-2.534;2023-05-15T11:56:22;15.00;98.10
48988;DHT22;34799;51.440;-2.534;2023-05-15T11:58:54;15.10;97.50
48988;DHT22;34799;51.440;-2.534;2023-05-15T12:01:21;15.20;97.40
48988;DHT22;34799;51.440;-2.534;2023-05-15T12:03:49;15.30;97.80
48988;DHT22;34799;51.440;-2.534;2023-05-15T12:06:18;15.40;97.60
48988;DHT22;34799;51.440;-2.534;2023-05-15T12:08:50;15.30;98.00
48988;DHT22;34799;51.440;-2.534;2023-05-15T12:11:23;15.30;98.30
48988;DHT22;34799;51.440;-2.534;2023-05-15T12:13:51;15.30;98.20
48988;DHT22;34799;51.440;-2.534;2023-05-15T12:16:24;15.10;98.00
48988;DHT22;34799;51.440;-2.534;2023-05-15T12:18:52;15.00;98.00
48988;DHT22;34799;51.440;-2.534;2023-05-15T12:21:19;14.90;98.40
48988;DHT22;34799;51.440;-2.534;2023-05-15T12:23:52;15.00;98.30
48988;DHT22;34799;51.440;-2.534;2023-05-15T12:26:29;15.00;97.90
48988;DHT22;34799;51.440;-2.534;2023-05-15T12:28:56;15.20;98.40
48988;DHT22;34799;51.440;-2.534;2023-05-15T12:31:24;15.60;98.50
48988;DHT22;34799;51.440;-2.534;2023-05-15T12:33:51;15.90;98.10
48988;DHT22;34799;51.440;-2.534;2023-05-15T12:36:20;15.80;98.00
48988;DHT22;34799;51.440;-2.534;2023-05-15T12:38:47;15.70;97.70
48988;DHT22;34799;51.440;-2.534;2023-05-15T12:41:15;16.00;98.90
48988;DHT22;34799;51.440;-2.534;2023-05-15T12:43:42;16.30;98.00
48988;DHT22;34799;51.440;-2.534;2023-05-15T12:46:12;16.30;97.30
48988;DHT22;34799;51.440;-2.534;2023-05-15T12:48:41;16.00;97.70
48988;DHT22;34799;51.440;-2.534;2023-05-15T12:51:08;15.60;98.10
48988;DHT22;34799;51.440;-2.534;2023-05-15T12:53:35;15.30;98.10
48988;DHT22;34799;51.440;-2.534;2023-05-15T12:56:05;15.10;96.70
48988;DHT22;34799;51.440;-2.534;2023-05-15T12:58:32;15.10;95.60
48988;DHT22;34799;51.440;-2.534;2023-05-15T13:01:02;15.30;96.20
48988;DHT22;34799;51.440;-2.534;2023-05-15T13:03:29;15.70;95.80
48988;DHT22;34799;51.440;-2.534;2023-05-15T13:05:57;16.00;95.90
48988;DHT22;34799;51.440;-2.534;2023-05-15T13:08:24;16.20;96.00
48988;DHT22;34799;51.440;-2.534;2023-05-15T13:10:56;16.30;95.40
48988;DHT22;34799;51.440;-2.534;2023-05-15T13:13:42;16.30;95.10
48988;DHT22;34799;51.440;-2.534;2023-05-15T13:16:19;16.20;95.80
48988;DHT22;34799;51.440;-2.534;2023-05-15T13:18:47;16.20;96.20
48988;DHT22;34799;51.440;-2.534;2023-05-15T13:21:15;16.10;95.90
48988;DHT22;34799;51.440;-2.534;2023-05-15T13:23:42;15.80;96.10
48988;DHT22;34799;51.440;-2.534;2023-05-15T13:26:09;15.70;96.40
48988;DHT22;34799;51.440;-2.534;2023-05-15T13:28:36;15.80;96.10
48988;DHT22;34799;51.440;-2.534;2023-05-15T13:31:05;16.20;96.70
48988;DHT22;34799;51.440;-2.534;2023-05-15T13:33:32;16.50;95.20
48988;DHT22;34799;51.440;-2.534;2023-05-15T13:36:01;16.70;94.80
48988;DHT22;34799;51.440;-2.534;2023-05-15T13:38:28;16.90;95.40
48988;DHT22;34799;51.440;-2.534;2023-05-15T13:40:55;16.90;95.00
48988;DHT22;34799;51.440;-2.534;2023-05-15T13:43:22;16.80;95.20
48988;DHT22;34799;51.440;-2.534;2023-05-15T13:45:53;16.70;95.50
48988;DHT22;34799;51.440;-2.534;2023-05-15T13:48:20;16.40;95.30
48988;DHT22;34799;51.440;-2.534;2023-05-15T13:50:47;16.20;95.40
48988;DHT22;34799;51.440;-2.534;2023-05-15T13:53:15;16.20;95.00
48988;DHT22;34799;51.440;-2.534;2023-05-15T13:55:43;16.60;95.10
48988;DHT22;34799;51.440;-2.534;2023-05-15T13:58:13;17.10;95.10
48988;DHT22;34799;51.440;-2.534;2023-05-15T14:00:43;17.30;94.50
48988;DHT22;34799;51.440;-2.534;2023-05-15T14:03:10;17.00;94.70
48988;DHT22;34799;51.440;-2.534;2023-05-15T14:05:42;16.80;94.60
48988;DHT22;34799;51.440;-2.534;2023-05-15T14:08:09;16.50;94.90
48988;DHT22;34799;51.440;-2.534;2023-05-15T14:10:36;16.80;94.80
48988;DHT22;34799;51.440;-2.534;2023-05-15T14:13:03;16.90;95.30
48988;DHT22;34799;51.440;-2.534;2023-05-15T14:15:30;16.80;95.20
48988;DHT22;34799;51.440;-2.534;2023-05-15T14:17:57;16.90;94.90
48988;DHT22;34799;51.440;-2.534;2023-05-15T14:20:25;17.30;94.80
48988;DHT22;34799;51.440;-2.534;2023-05-15T14:22:51;17.80;95.60
48988;DHT22;34799;51.440;-2.534;2023-05-15T14:25:18;18.00;94.40
48988;DHT22;34799;51.440;-2.534;2023-05-15T14:27:46;17.70;92.60
48988;DHT22;34799;51.440;-2.534;2023-05-15T14:30:15;17.50;92.90
48988;DHT22;34799;51.440;-2.534;2023-05-15T14:32:42;17.60;92.50
48988;DHT22;34799;51.440;-2.534;2023-05-15T14:35:10;17.60;92.10
48988;DHT22;34799;51.440;-2.534;2023-05-15T14:37:37;17.40;93.20
48988;DHT22;34799;51.440;-2.534;2023-05-15T14:40:04;17.70;93.40
48988;DHT22;34799;51.440;-2.534;2023-05-15T14:42:32;17.90;92.60
48988;DHT22;34799;51.440;-2.534;2023-05-15T14:44:59;17.90;92.20
48988;DHT22;34799;51.440;-2.534;2023-05-15T14:47:29;18.20;92.60
48988;DHT22;34799;51.440;-2.534;2023-05-15T14:49:56;18.50;92.10
48988;DHT22;34799;51.440;-2.534;2023-05-15T14:52:24;18.80;92.10
48988;DHT22;34799;51.440;-2.534;2023-05-15T14:54:51;18.80;92.10
48988;DHT22;34799;51.440;-2.534;2023-05-15T14:57:23;18.30;92.40
48988;DHT22;34799;51.440;-2.534;2023-05-15T14:59:51;18.10;91.70
48988;DHT22;34799;51.440;-2.534;2023-05-15T15:02:19;18.00;92.10
48988;DHT22;34799;51.440;-2.534;2023-05-15T15:04:46;18.20;91.90
48988;DHT22;34799;51.440;-2.534;2023-05-15T15:07:12;18.50;91.60
48988;DHT22;34799;51.440;-2.534;2023-05-15T15:09:40;18.90;91.60
48988;DHT22;34799;51.440;-2.534;2023-05-15T15:12:07;19.10;91.50
48988;DHT22;34799;51.440;-2.534;2023-05-15T15:14:34;19.10;91.60
48988;DHT22;34799;51.440;-2.534;2023-05-15T15:17:04;19.00;91.30
48988;DHT22;34799;51.440;-2.534;2023-05-15T15:19:31;18.80;91.70
48988;DHT22;34799;51.440;-2.534;2023-05-15T15:21:58;18.70;91.80
48988;DHT22;34799;51.440;-2.534;2023-05-15T15:24:26;18.50;91.60
48988;DHT22;34799;51.440;-2.534;2023-05-15T15:26:54;18.50;92.00
48988;DHT22;34799;51.440;-2.534;2023-05-15T15:29:21;18.50;91.80
48988;DHT22;34799;51.440;-2.534;2023-05-15T15:31:48;18.60;92.30
48988;DHT22;34799;51.440;-2.534;2023-05-15T15:34:15;18.80;92.20
48988;DHT22;34799;51.440;-2.534;2023-05-15T15:36:44;19.10;91.90
48988;DHT22;34799;51.440;-2.534;2023-05-15T15:39:11;19.10;91.40
48988;DHT22;34799;51.440;-2.534;2023-05-15T15:41:38;19.40;92.00
48988;DHT22;34799;51.440;-2.534;2023-05-15T15:44:05;19.70;91.10
48988;DHT22;34799;51.440;-2.534;2023-05-15T15:46:32;19.40;91.30
48988;DHT22;34799;51.440;-2.534;2023-05-15T15:49:00;18.70;92.10
48988;DHT22;34799;51.440;-2.534;2023-05-15T15:51:27;18.60;92.80
48988;DHT22;34799;51.440;-2.534;2023-05-15T15:53:54;18.70;92.70